High Forest, Minnesota
Current Conditions -  °F | °C
As of 11:54 AM on Monday 24 Nov 2014 (Local Time) from KRST Reporting Station
Overcast Overcast  
Wind Chill:   Ceiling: 1100
Heat Index: 21°   Visibility: 10mi
Dew Point: 17°   Wind: 26mph
Humidity: 85%   Direction: 300°WNW
Pressure: 29.4"   Gusts: 32mph
Location:  43.8884°N, 92.383°W
Report Text: KRST 241754Z 30023G28KT 10SM OVC011 M06/M08 A2940 RMK AO2 PK WND 30031/1659 SLP973 60001 I6001 T10611083 11022 21061 51023
Loading
Personal Weather Stations






























Interactive Weather Map New forecast layout! Learn more

10-Day Weather Forecast

Advertisements
Track Severe Weather on mobile